sensor_id;sensor_type;location;lat;lon;timestamp;P1;durP1;ratioP1;P2;durP2;ratioP2
33190;SDS011;19554;42.652;23.364;2022-12-18T00:01:02;8.27;;;5.20;;
33190;SDS011;19554;42.652;23.364;2022-12-18T00:03:34;8.40;;;5.55;;
33190;SDS011;19554;42.652;23.364;2022-12-18T00:06:00;8.32;;;5.85;;
33190;SDS011;19554;42.652;23.364;2022-12-18T00:08:26;7.93;;;6.03;;
33190;SDS011;19554;42.652;23.364;2022-12-18T00:10:52;9.07;;;6.30;;
33190;SDS011;19554;42.652;23.364;2022-12-18T00:13:18;8.57;;;6.18;;
33190;SDS011;19554;42.652;23.364;2022-12-18T00:15:43;8.02;;;5.97;;
33190;SDS011;19554;42.652;23.364;2022-12-18T00:18:09;7.60;;;6.07;;
33190;SDS011;19554;42.652;23.364;2022-12-18T00:20:38;10.05;;;6.45;;
33190;SDS011;19554;42.652;23.364;2022-12-18T00:23:05;9.55;;;6.50;;
33190;SDS011;19554;42.652;23.364;2022-12-18T00:25:34;7.70;;;6.03;;
33190;SDS011;19554;42.652;23.364;2022-12-18T00:28:01;11.27;;;7.47;;
33190;SDS011;19554;42.652;23.364;2022-12-18T00:30:27;11.30;;;6.70;;
33190;SDS011;19554;42.652;23.364;2022-12-18T00:32:52;7.57;;;6.22;;
33190;SDS011;19554;42.652;23.364;2022-12-18T00:35:18;13.27;;;7.10;;
33190;SDS011;19554;42.652;23.364;2022-12-18T00:37:43;12.90;;;7.20;;
33190;SDS011;19554;42.652;23.364;2022-12-18T00:40:09;10.77;;;6.45;;
33190;SDS011;19554;42.652;23.364;2022-12-18T00:42:37;14.07;;;6.72;;
33190;SDS011;19554;42.652;23.364;2022-12-18T00:45:28;10.27;;;6.90;;
33190;SDS011;19554;42.652;23.364;2022-12-18T00:47:55;9.88;;;7.32;;
33190;SDS011;19554;42.652;23.364;2022-12-18T00:50:22;11.85;;;7.72;;
33190;SDS011;19554;42.652;23.364;2022-12-18T00:52:48;10.23;;;7.38;;
33190;SDS011;19554;42.652;23.364;2022-12-18T00:55:14;9.65;;;6.60;;
33190;SDS011;19554;42.652;23.364;2022-12-18T00:57:39;11.57;;;7.88;;
33190;SDS011;19554;42.652;23.364;2022-12-18T01:00:06;14.10;;;8.45;;
33190;SDS011;19554;42.652;23.364;2022-12-18T01:02:34;9.75;;;7.63;;
33190;SDS011;19554;42.652;23.364;2022-12-18T01:04:59;9.65;;;7.38;;
33190;SDS011;19554;42.652;23.364;2022-12-18T01:07:25;14.68;;;8.70;;
33190;SDS011;19554;42.652;23.364;2022-12-18T01:09:50;12.15;;;7.72;;
33190;SDS011;19554;42.652;23.364;2022-12-18T01:12:15;12.50;;;8.45;;
33190;SDS011;19554;42.652;23.364;2022-12-18T01:14:41;14.43;;;9.23;;
33190;SDS011;19554;42.652;23.364;2022-12-18T01:17:06;13.52;;;8.75;;
33190;SDS011;19554;42.652;23.364;2022-12-18T01:19:32;17.42;;;9.32;;
33190;SDS011;19554;42.652;23.364;2022-12-18T01:21:57;11.38;;;7.88;;
33190;SDS011;19554;42.652;23.364;2022-12-18T01:24:23;12.85;;;8.55;;
33190;SDS011;19554;42.652;23.364;2022-12-18T01:26:48;11.90;;;8.57;;
33190;SDS011;19554;42.652;23.364;2022-12-18T01:29:13;10.00;;;7.40;;
33190;SDS011;19554;42.652;23.364;2022-12-18T01:31:39;11.27;;;7.78;;
33190;SDS011;19554;42.652;23.364;2022-12-18T01:34:05;10.07;;;7.95;;
33190;SDS011;19554;42.652;23.364;2022-12-18T01:36:31;12.27;;;8.00;;
33190;SDS011;19554;42.652;23.364;2022-12-18T01:39:03;10.45;;;7.32;;
33190;SDS011;19554;42.652;23.364;2022-12-18T01:41:34;13.43;;;8.48;;
33190;SDS011;19554;42.652;23.364;2022-12-18T01:47:14;13.90;;;8.38;;
33190;SDS011;19554;42.652;23.364;2022-12-18T01:49:43;12.55;;;8.63;;
33190;SDS011;19554;42.652;23.364;2022-12-18T01:52:08;12.98;;;8.73;;
33190;SDS011;19554;42.652;23.364;2022-12-18T01:54:34;15.55;;;9.35;;
33190;SDS011;19554;42.652;23.364;2022-12-18T01:56:59;13.88;;;8.82;;
33190;SDS011;19554;42.652;23.364;2022-12-18T01:59:25;12.27;;;8.32;;
33190;SDS011;19554;42.652;23.364;2022-12-18T02:01:52;13.73;;;9.52;;
33190;SDS011;19554;42.652;23.364;2022-12-18T02:04:22;13.95;;;9.07;;
33190;SDS011;19554;42.652;23.364;2022-12-18T02:06:51;13.00;;;8.50;;
33190;SDS011;19554;42.652;23.364;2022-12-18T02:09:29;13.30;;;8.77;;
33190;SDS011;19554;42.652;23.364;2022-12-18T02:12:05;15.27;;;9.45;;
33190;SDS011;19554;42.652;23.364;2022-12-18T02:14:54;14.02;;;9.45;;
33190;SDS011;19554;42.652;23.364;2022-12-18T02:25:37;13.57;;;8.85;;
33190;SDS011;19554;42.652;23.364;2022-12-18T02:28:04;13.23;;;8.95;;
33190;SDS011;19554;42.652;23.364;2022-12-18T02:30:34;13.80;;;9.73;;
33190;SDS011;19554;42.652;23.364;2022-12-18T02:33:02;13.98;;;9.93;;
33190;SDS011;19554;42.652;23.364;2022-12-18T02:35:30;15.25;;;9.75;;
33190;SDS011;19554;42.652;23.364;2022-12-18T02:37:56;12.63;;;8.80;;
33190;SDS011;19554;42.652;23.364;2022-12-18T02:40:23;12.40;;;8.93;;
33190;SDS011;19554;42.652;23.364;2022-12-18T02:42:51;15.60;;;9.93;;
33190;SDS011;19554;42.652;23.364;2022-12-18T02:45:16;12.27;;;8.95;;
33190;SDS011;19554;42.652;23.364;2022-12-18T02:47:43;13.32;;;8.75;;
33190;SDS011;19554;42.652;23.364;2022-12-18T02:50:22;12.15;;;8.43;;
33190;SDS011;19554;42.652;23.364;2022-12-18T02:58:30;12.70;;;9.13;;
33190;SDS011;19554;42.652;23.364;2022-12-18T03:01:12;12.52;;;8.40;;
33190;SDS011;19554;42.652;23.364;2022-12-18T03:03:40;13.02;;;8.90;;
33190;SDS011;19554;42.652;23.364;2022-12-18T03:06:16;15.57;;;9.35;;
33190;SDS011;19554;42.652;23.364;2022-12-18T03:08:49;12.18;;;8.77;;
33190;SDS011;19554;42.652;23.364;2022-12-18T03:11:19;13.90;;;9.07;;
33190;SDS011;19554;42.652;23.364;2022-12-18T03:14:04;13.80;;;8.40;;
33190;SDS011;19554;42.652;23.364;2022-12-18T03:16:32;13.85;;;9.45;;
33190;SDS011;19554;42.652;23.364;2022-12-18T03:19:01;14.13;;;9.35;;
33190;SDS011;19554;42.652;23.364;2022-12-18T03:21:37;14.48;;;9.25;;
33190;SDS011;19554;42.652;23.364;2022-12-18T03:24:07;12.30;;;8.52;;
33190;SDS011;19554;42.652;23.364;2022-12-18T03:26:36;13.43;;;9.20;;
33190;SDS011;19554;42.652;23.364;2022-12-18T03:29:09;14.18;;;8.95;;
33190;SDS011;19554;42.652;23.364;2022-12-18T03:31:41;12.15;;;8.93;;
33190;SDS011;19554;42.652;23.364;2022-12-18T03:34:15;11.23;;;8.25;;
33190;SDS011;19554;42.652;23.364;2022-12-18T03:36:46;14.55;;;8.48;;
33190;SDS011;19554;42.652;23.364;2022-12-18T03:39:12;10.98;;;8.00;;
33190;SDS011;19554;42.652;23.364;2022-12-18T03:41:47;12.32;;;8.18;;
33190;SDS011;19554;42.652;23.364;2022-12-18T03:44:30;14.30;;;8.65;;
33190;SDS011;19554;42.652;23.364;2022-12-18T03:49:51;11.77;;;7.82;;
33190;SDS011;19554;42.652;23.364;2022-12-18T03:52:38;12.05;;;8.50;;
33190;SDS011;19554;42.652;23.364;2022-12-18T03:55:11;13.30;;;8.32;;
33190;SDS011;19554;42.652;23.364;2022-12-18T03:57:37;15.18;;;9.52;;
33190;SDS011;19554;42.652;23.364;2022-12-18T04:00:08;13.48;;;9.00;;
33190;SDS011;19554;42.652;23.364;2022-12-18T04:02:37;13.98;;;8.90;;
33190;SDS011;19554;42.652;23.364;2022-12-18T04:05:06;13.75;;;8.50;;
33190;SDS011;19554;42.652;23.364;2022-12-18T04:07:33;14.05;;;8.43;;
33190;SDS011;19554;42.652;23.364;2022-12-18T04:10:00;12.43;;;8.98;;
33190;SDS011;19554;42.652;23.364;2022-12-18T04:12:28;12.43;;;8.27;;
33190;SDS011;19554;42.652;23.364;2022-12-18T04:14:54;12.23;;;8.63;;
33190;SDS011;19554;42.652;23.364;2022-12-18T04:17:20;11.93;;;7.82;;
33190;SDS011;19554;42.652;23.364;2022-12-18T04:19:46;11.93;;;8.40;;
33190;SDS011;19554;42.652;23.364;2022-12-18T04:22:11;11.90;;;7.75;;
33190;SDS011;19554;42.652;23.364;2022-12-18T04:24:37;13.13;;;8.90;;
33190;SDS011;19554;42.652;23.364;2022-12-18T04:27:02;14.00;;;8.52;;
33190;SDS011;19554;42.652;23.364;2022-12-18T04:29:28;12.95;;;8.73;;
33190;SDS011;19554;42.652;23.364;2022-12-18T04:31:54;12.88;;;8.18;;
33190;SDS011;19554;42.652;23.364;2022-12-18T04:34:20;13.85;;;9.15;;
33190;SDS011;19554;42.652;23.364;2022-12-18T04:36:45;16.50;;;9.60;;
33190;SDS011;19554;42.652;23.364;2022-12-18T04:39:11;14.27;;;9.40;;
33190;SDS011;19554;42.652;23.364;2022-12-18T04:41:36;15.65;;;9.18;;
33190;SDS011;19554;42.652;23.364;2022-12-18T04:44:02;16.52;;;9.45;;
33190;SDS011;19554;42.652;23.364;2022-12-18T04:46:27;16.90;;;10.38;;
33190;SDS011;19554;42.652;23.364;2022-12-18T04:48:53;16.02;;;10.05;;
33190;SDS011;19554;42.652;23.364;2022-12-18T04:51:18;15.10;;;10.07;;
33190;SDS011;19554;42.652;23.364;2022-12-18T04:53:44;16.75;;;9.50;;
33190;SDS011;19554;42.652;23.364;2022-12-18T04:56:10;17.65;;;10.23;;
33190;SDS011;19554;42.652;23.364;2022-12-18T04:58:38;19.00;;;11.05;;
33190;SDS011;19554;42.652;23.364;2022-12-18T05:01:04;17.65;;;10.70;;
33190;SDS011;19554;42.652;23.364;2022-12-18T05:03:30;18.25;;;10.77;;
33190;SDS011;19554;42.652;23.364;2022-12-18T05:05:55;17.67;;;11.27;;
33190;SDS011;19554;42.652;23.364;2022-12-18T05:08:21;17.50;;;11.07;;
33190;SDS011;19554;42.652;23.364;2022-12-18T05:10:46;19.92;;;11.48;;
33190;SDS011;19554;42.652;23.364;2022-12-18T05:13:11;19.27;;;12.95;;
33190;SDS011;19554;42.652;23.364;2022-12-18T05:15:37;16.73;;;11.73;;
33190;SDS011;19554;42.652;23.364;2022-12-18T05:18:03;18.45;;;11.43;;
33190;SDS011;19554;42.652;23.364;2022-12-18T05:20:29;18.70;;;11.73;;
33190;SDS011;19554;42.652;23.364;2022-12-18T05:22:55;17.80;;;11.27;;
33190;SDS011;19554;42.652;23.364;2022-12-18T05:25:21;17.35;;;11.02;;
33190;SDS011;19554;42.652;23.364;2022-12-18T05:27:47;20.88;;;12.30;;
33190;SDS011;19554;42.652;23.364;2022-12-18T05:30:13;17.77;;;11.93;;
33190;SDS011;19554;42.652;23.364;2022-12-18T05:32:39;20.75;;;12.40;;
33190;SDS011;19554;42.652;23.364;2022-12-18T05:35:05;17.80;;;11.25;;
33190;SDS011;19554;42.652;23.364;2022-12-18T05:37:32;22.20;;;12.50;;
33190;SDS011;19554;42.652;23.364;2022-12-18T05:39:57;20.30;;;12.65;;
33190;SDS011;19554;42.652;23.364;2022-12-18T05:42:22;21.15;;;11.43;;
33190;SDS011;19554;42.652;23.364;2022-12-18T05:44:48;20.02;;;11.90;;
33190;SDS011;19554;42.652;23.364;2022-12-18T05:47:13;20.23;;;12.63;;
33190;SDS011;19554;42.652;23.364;2022-12-18T05:49:38;18.70;;;11.68;;
33190;SDS011;19554;42.652;23.364;2022-12-18T05:52:04;20.13;;;12.55;;
33190;SDS011;19554;42.652;23.364;2022-12-18T05:54:29;20.23;;;11.35;;
33190;SDS011;19554;42.652;23.364;2022-12-18T05:56:56;21.63;;;13.38;;
33190;SDS011;19554;42.652;23.364;2022-12-18T05:59:22;20.33;;;12.82;;
33190;SDS011;19554;42.652;23.364;2022-12-18T06:01:47;22.00;;;13.13;;
33190;SDS011;19554;42.652;23.364;2022-12-18T06:04:12;19.90;;;12.82;;
33190;SDS011;19554;42.652;23.364;2022-12-18T06:06:38;21.63;;;13.68;;
33190;SDS011;19554;42.652;23.364;2022-12-18T06:09:03;23.30;;;13.40;;
33190;SDS011;19554;42.652;23.364;2022-12-18T06:11:35;21.20;;;13.18;;
33190;SDS011;19554;42.652;23.364;2022-12-18T06:14:01;22.20;;;13.00;;
33190;SDS011;19554;42.652;23.364;2022-12-18T06:16:28;22.00;;;12.65;;
33190;SDS011;19554;42.652;23.364;2022-12-18T06:18:57;21.60;;;13.13;;
33190;SDS011;19554;42.652;23.364;2022-12-18T06:21:23;22.13;;;13.05;;
33190;SDS011;19554;42.652;23.364;2022-12-18T06:23:49;23.80;;;12.80;;
33190;SDS011;19554;42.652;23.364;2022-12-18T06:26:14;21.23;;;12.43;;
33190;SDS011;19554;42.652;23.364;2022-12-18T06:28:40;21.70;;;13.10;;
33190;SDS011;19554;42.652;23.364;2022-12-18T06:31:06;22.55;;;13.95;;
33190;SDS011;19554;42.652;23.364;2022-12-18T06:33:32;23.60;;;14.13;;
33190;SDS011;19554;42.652;23.364;2022-12-18T06:36:05;22.15;;;13.88;;
33190;SDS011;19554;42.652;23.364;2022-12-18T06:38:33;27.25;;;14.38;;
33190;SDS011;19554;42.652;23.364;2022-12-18T06:40:59;24.05;;;14.60;;
33190;SDS011;19554;42.652;23.364;2022-12-18T06:43:24;23.65;;;13.98;;
33190;SDS011;19554;42.652;23.364;2022-12-18T06:45:50;19.27;;;12.95;;
33190;SDS011;19554;42.652;23.364;2022-12-18T06:48:20;22.88;;;13.98;;
33190;SDS011;19554;42.652;23.364;2022-12-18T06:50:46;23.60;;;14.18;;
33190;SDS011;19554;42.652;23.364;2022-12-18T06:53:12;22.05;;;13.95;;
33190;SDS011;19554;42.652;23.364;2022-12-18T06:55:37;24.02;;;14.40;;
33190;SDS011;19554;42.652;23.364;2022-12-18T06:58:02;26.40;;;14.88;;
33190;SDS011;19554;42.652;23.364;2022-12-18T07:00:28;24.42;;;14.65;;
33190;SDS011;19554;42.652;23.364;2022-12-18T07:02:53;28.73;;;16.38;;
33190;SDS011;19554;42.652;23.364;2022-12-18T07:05:19;25.48;;;15.05;;
33190;SDS011;19554;42.652;23.364;2022-12-18T07:07:44;22.67;;;13.43;;
33190;SDS011;19554;42.652;23.364;2022-12-18T07:10:10;25.15;;;13.18;;
33190;SDS011;19554;42.652;23.364;2022-12-18T07:12:35;23.55;;;13.98;;
33190;SDS011;19554;42.652;23.364;2022-12-18T07:15:00;24.70;;;14.93;;
33190;SDS011;19554;42.652;23.364;2022-12-18T07:17:26;26.67;;;15.95;;
33190;SDS011;19554;42.652;23.364;2022-12-18T07:19:52;25.95;;;14.85;;
33190;SDS011;19554;42.652;23.364;2022-12-18T07:22:17;23.55;;;14.65;;
33190;SDS011;19554;42.652;23.364;2022-12-18T07:24:42;26.67;;;14.32;;
33190;SDS011;19554;42.652;23.364;2022-12-18T07:27:08;25.00;;;15.07;;
33190;SDS011;19554;42.652;23.364;2022-12-18T07:29:33;28.65;;;15.23;;
33190;SDS011;19554;42.652;23.364;2022-12-18T07:31:59;26.25;;;14.70;;
33190;SDS011;19554;42.652;23.364;2022-12-18T07:34:24;26.55;;;15.23;;
33190;SDS011;19554;42.652;23.364;2022-12-18T07:36:50;25.65;;;15.80;;
33190;SDS011;19554;42.652;23.364;2022-12-18T07:39:15;26.98;;;15.70;;
33190;SDS011;19554;42.652;23.364;2022-12-18T07:41:40;28.15;;;15.60;;
33190;SDS011;19554;42.652;23.364;2022-12-18T07:44:10;25.52;;;14.73;;
33190;SDS011;19554;42.652;23.364;2022-12-18T07:46:36;25.70;;;16.13;;
33190;SDS011;19554;42.652;23.364;2022-12-18T07:49:02;25.30;;;14.95;;
33190;SDS011;19554;42.652;23.364;2022-12-18T07:51:28;26.80;;;14.10;;
33190;SDS011;19554;42.652;23.364;2022-12-18T07:53:53;23.95;;;14.23;;
33190;SDS011;19554;42.652;23.364;2022-12-18T07:56:19;27.23;;;15.02;;
33190;SDS011;19554;42.652;23.364;2022-12-18T07:58:48;24.38;;;15.88;;
33190;SDS011;19554;42.652;23.364;2022-12-18T08:01:13;26.27;;;14.57;;
33190;SDS011;19554;42.652;23.364;2022-12-18T08:03:39;30.73;;;16.60;;
33190;SDS011;19554;42.652;23.364;2022-12-18T08:06:06;27.95;;;15.75;;
33190;SDS011;19554;42.652;23.364;2022-12-18T08:08:33;27.90;;;16.15;;
33190;SDS011;19554;42.652;23.364;2022-12-18T08:10:59;30.58;;;17.30;;
33190;SDS011;19554;42.652;23.364;2022-12-18T08:13:25;32.17;;;18.45;;
33190;SDS011;19554;42.652;23.364;2022-12-18T08:15:58;29.52;;;18.73;;
33190;SDS011;19554;42.652;23.364;2022-12-18T08:18:25;34.63;;;19.52;;
33190;SDS011;19554;42.652;23.364;2022-12-18T08:20:51;31.77;;;18.25;;
33190;SDS011;19554;42.652;23.364;2022-12-18T08:23:16;31.02;;;18.00;;
33190;SDS011;19554;42.652;23.364;2022-12-18T08:25:42;31.70;;;18.80;;
33190;SDS011;19554;42.652;23.364;2022-12-18T08:28:07;32.03;;;18.50;;
33190;SDS011;19554;42.652;23.364;2022-12-18T08:30:32;31.30;;;18.00;;
33190;SDS011;19554;42.652;23.364;2022-12-18T08:32:58;38.53;;;21.80;;
33190;SDS011;19554;42.652;23.364;2022-12-18T08:35:23;32.67;;;18.35;;
33190;SDS011;19554;42.652;23.364;2022-12-18T08:37:49;34.72;;;17.92;;
33190;SDS011;19554;42.652;23.364;2022-12-18T08:40:15;36.95;;;20.30;;
33190;SDS011;19554;42.652;23.364;2022-12-18T08:42:40;32.53;;;19.00;;
33190;SDS011;19554;42.652;23.364;2022-12-18T08:45:24;33.72;;;19.00;;
33190;SDS011;19554;42.652;23.364;2022-12-18T08:47:49;31.70;;;18.20;;
33190;SDS011;19554;42.652;23.364;2022-12-18T08:50:15;28.50;;;17.20;;
33190;SDS011;19554;42.652;23.364;2022-12-18T08:52:40;29.60;;;17.10;;
33190;SDS011;19554;42.652;23.364;2022-12-18T08:55:06;32.58;;;18.65;;
33190;SDS011;19554;42.652;23.364;2022-12-18T08:57:32;29.95;;;17.98;;
33190;SDS011;19554;42.652;23.364;2022-12-18T08:59:57;28.83;;;18.08;;
33190;SDS011;19554;42.652;23.364;2022-12-18T09:02:23;34.47;;;18.95;;
33190;SDS011;19554;42.652;23.364;2022-12-18T09:04:48;34.33;;;18.58;;
33190;SDS011;19554;42.652;23.364;2022-12-18T09:07:13;37.35;;;19.45;;
33190;SDS011;19554;42.652;23.364;2022-12-18T09:09:39;32.40;;;18.60;;
33190;SDS011;19554;42.652;23.364;2022-12-18T09:12:04;31.13;;;18.40;;
33190;SDS011;19554;42.652;23.364;2022-12-18T09:14:30;36.90;;;18.98;;
33190;SDS011;19554;42.652;23.364;2022-12-18T09:16:55;33.70;;;18.73;;
33190;SDS011;19554;42.652;23.364;2022-12-18T09:19:21;30.80;;;18.98;;
33190;SDS011;19554;42.652;23.364;2022-12-18T09:21:46;33.95;;;19.38;;
33190;SDS011;19554;42.652;23.364;2022-12-18T09:24:12;32.20;;;19.73;;
33190;SDS011;19554;42.652;23.364;2022-12-18T09:26:38;33.38;;;19.05;;
33190;SDS011;19554;42.652;23.364;2022-12-18T09:29:04;30.77;;;17.65;;
33190;SDS011;19554;42.652;23.364;2022-12-18T09:31:29;32.40;;;18.25;;
33190;SDS011;19554;42.652;23.364;2022-12-18T09:33:55;31.17;;;17.10;;
33190;SDS011;19554;42.652;23.364;2022-12-18T09:36:21;29.45;;;17.13;;
33190;SDS011;19554;42.652;23.364;2022-12-18T09:38:47;27.65;;;16.55;;
33190;SDS011;19554;42.652;23.364;2022-12-18T09:44:14;30.17;;;16.50;;
33190;SDS011;19554;42.652;23.364;2022-12-18T09:47:12;26.48;;;15.20;;
33190;SDS011;19554;42.652;23.364;2022-12-18T09:49:44;28.92;;;16.48;;
33190;SDS011;19554;42.652;23.364;2022-12-18T09:52:28;29.70;;;17.00;;
33190;SDS011;19554;42.652;23.364;2022-12-18T09:54:58;27.48;;;16.10;;
33190;SDS011;19554;42.652;23.364;2022-12-18T10:00:00;31.20;;;17.25;;
33190;SDS011;19554;42.652;23.364;2022-12-18T10:02:47;29.83;;;16.17;;
33190;SDS011;19554;42.652;23.364;2022-12-18T10:05:16;27.45;;;16.83;;
33190;SDS011;19554;42.652;23.364;2022-12-18T10:08:17;28.13;;;15.07;;
33190;SDS011;19554;42.652;23.364;2022-12-18T10:10:51;33.22;;;18.10;;
33190;SDS011;19554;42.652;23.364;2022-12-18T10:18:27;31.10;;;17.10;;
33190;SDS011;19554;42.652;23.364;2022-12-18T10:21:12;30.23;;;18.23;;
33190;SDS011;19554;42.652;23.364;2022-12-18T10:26:27;32.90;;;17.65;;
33190;SDS011;19554;42.652;23.364;2022-12-18T10:28:53;32.17;;;18.13;;
33190;SDS011;19554;42.652;23.364;2022-12-18T10:31:20;28.13;;;16.52;;
33190;SDS011;19554;42.652;23.364;2022-12-18T10:33:47;30.48;;;16.77;;
33190;SDS011;19554;42.652;23.364;2022-12-18T10:36:13;29.85;;;15.52;;
33190;SDS011;19554;42.652;23.364;2022-12-18T10:38:38;28.92;;;15.88;;
33190;SDS011;19554;42.652;23.364;2022-12-18T10:41:05;34.95;;;16.35;;
33190;SDS011;19554;42.652;23.364;2022-12-18T10:43:39;28.40;;;16.35;;
33190;SDS011;19554;42.652;23.364;2022-12-18T10:51:05;30.58;;;16.50;;
33190;SDS011;19554;42.652;23.364;2022-12-18T10:53:33;30.60;;;16.95;;
33190;SDS011;19554;42.652;23.364;2022-12-18T10:56:00;30.90;;;17.00;;
33190;SDS011;19554;42.652;23.364;2022-12-18T10:58:36;30.52;;;17.70;;
33190;SDS011;19554;42.652;23.364;2022-12-18T11:06:20;33.53;;;18.25;;
33190;SDS011;19554;42.652;23.364;2022-12-18T11:09:03;28.77;;;17.40;;
33190;SDS011;19554;42.652;23.364;2022-12-18T11:11:29;31.80;;;16.88;;
33190;SDS011;19554;42.652;23.364;2022-12-18T11:14:04;32.28;;;17.83;;
33190;SDS011;19554;42.652;23.364;2022-12-18T11:16:36;34.45;;;17.80;;
33190;SDS011;19554;42.652;23.364;2022-12-18T11:19:10;30.58;;;17.50;;
33190;SDS011;19554;42.652;23.364;2022-12-18T11:21:53;27.42;;;15.50;;
33190;SDS011;19554;42.652;23.364;2022-12-18T11:24:24;31.13;;;15.73;;
33190;SDS011;19554;42.652;23.364;2022-12-18T11:27:00;26.83;;;14.95;;
33190;SDS011;19554;42.652;23.364;2022-12-18T11:29:34;25.35;;;14.52;;
33190;SDS011;19554;42.652;23.364;2022-12-18T11:34:49;28.00;;;15.05;;
33190;SDS011;19554;42.652;23.364;2022-12-18T11:37:20;27.67;;;15.25;;
33190;SDS011;19554;42.652;23.364;2022-12-18T11:39:49;26.58;;;15.00;;
33190;SDS011;19554;42.652;23.364;2022-12-18T11:42:40;27.17;;;15.60;;
33190;SDS011;19554;42.652;23.364;2022-12-18T11:50:56;27.65;;;14.55;;
33190;SDS011;19554;42.652;23.364;2022-12-18T11:53:25;32.17;;;16.52;;
33190;SDS011;19554;42.652;23.364;2022-12-18T11:55:56;27.60;;;15.10;;
33190;SDS011;19554;42.652;23.364;2022-12-18T12:06:53;25.33;;;14.57;;
33190;SDS011;19554;42.652;23.364;2022-12-18T12:23:01;27.45;;;15.55;;
33190;SDS011;19554;42.652;23.364;2022-12-18T12:36:26;27.13;;;15.82;;
33190;SDS011;19554;42.652;23.364;2022-12-18T12:38:55;32.75;;;18.25;;
33190;SDS011;19554;42.652;23.364;2022-12-18T12:41:25;29.38;;;17.02;;
33190;SDS011;19554;42.652;23.364;2022-12-18T12:47:06;29.10;;;15.90;;
33190;SDS011;19554;42.652;23.364;2022-12-18T12:49:44;34.47;;;17.52;;
33190;SDS011;19554;42.652;23.364;2022-12-18T12:52:34;30.48;;;16.67;;
33190;SDS011;19554;42.652;23.364;2022-12-18T12:55:02;32.03;;;16.85;;
33190;SDS011;19554;42.652;23.364;2022-12-18T13:00:17;30.67;;;16.85;;
33190;SDS011;19554;42.652;23.364;2022-12-18T13:02:47;33.75;;;17.48;;
33190;SDS011;19554;42.652;23.364;2022-12-18T13:05:19;30.60;;;17.42;;
33190;SDS011;19554;42.652;23.364;2022-12-18T13:08:03;35.75;;;17.67;;
33190;SDS011;19554;42.652;23.364;2022-12-18T13:13:09;33.30;;;17.02;;
33190;SDS011;19554;42.652;23.364;2022-12-18T13:18:04;33.03;;;18.63;;
33190;SDS011;19554;42.652;23.364;2022-12-18T13:20:33;35.03;;;18.15;;
33190;SDS011;19554;42.652;23.364;2022-12-18T13:23:19;31.10;;;17.55;;
33190;SDS011;19554;42.652;23.364;2022-12-18T13:25:52;35.55;;;18.58;;
33190;SDS011;19554;42.652;23.364;2022-12-18T13:28:52;31.63;;;18.40;;
33190;SDS011;19554;42.652;23.364;2022-12-18T13:31:12;32.47;;;18.80;;
33190;SDS011;19554;42.652;23.364;2022-12-18T13:33:39;35.05;;;18.40;;
33190;SDS011;19554;42.652;23.364;2022-12-18T13:36:14;32.22;;;18.00;;
33190;SDS011;19554;42.652;23.364;2022-12-18T13:39:08;32.90;;;18.20;;
33190;SDS011;19554;42.652;23.364;2022-12-18T13:41:34;32.67;;;18.30;;
33190;SDS011;19554;42.652;23.364;2022-12-18T13:46:57;29.88;;;17.05;;
33190;SDS011;19554;42.652;23.364;2022-12-18T13:49:37;31.08;;;16.15;;
33190;SDS011;19554;42.652;23.364;2022-12-18T13:52:18;31.85;;;16.38;;
33190;SDS011;19554;42.652;23.364;2022-12-18T13:54:55;34.03;;;16.77;;
33190;SDS011;19554;42.652;23.364;2022-12-18T13:57:27;29.60;;;17.05;;
33190;SDS011;19554;42.652;23.364;2022-12-18T13:59:54;30.80;;;17.35;;
33190;SDS011;19554;42.652;23.364;2022-12-18T14:02:22;31.88;;;17.60;;
33190;SDS011;19554;42.652;23.364;2022-12-18T14:04:52;31.15;;;17.00;;
33190;SDS011;19554;42.652;23.364;2022-12-18T14:07:20;31.25;;;16.85;;
33190;SDS011;19554;42.652;23.364;2022-12-18T14:09:59;29.30;;;17.30;;
33190;SDS011;19554;42.652;23.364;2022-12-18T14:15:43;31.95;;;16.25;;
33190;SDS011;19554;42.652;23.364;2022-12-18T14:20:52;26.23;;;15.25;;
33190;SDS011;19554;42.652;23.364;2022-12-18T14:23:28;25.73;;;14.27;;
33190;SDS011;19554;42.652;23.364;2022-12-18T14:25:56;25.38;;;14.63;;
33190;SDS011;19554;42.652;23.364;2022-12-18T14:28:22;25.48;;;14.27;;
33190;SDS011;19554;42.652;23.364;2022-12-18T14:30:48;28.58;;;15.25;;
33190;SDS011;19554;42.652;23.364;2022-12-18T14:33:17;26.23;;;14.80;;
33190;SDS011;19554;42.652;23.364;2022-12-18T14:38:27;26.00;;;13.90;;
33190;SDS011;19554;42.652;23.364;2022-12-18T14:43:34;26.38;;;14.88;;
33190;SDS011;19554;42.652;23.364;2022-12-18T14:46:01;25.83;;;14.55;;
33190;SDS011;19554;42.652;23.364;2022-12-18T14:59:00;26.30;;;14.32;;
33190;SDS011;19554;42.652;23.364;2022-12-18T15:01:38;27.75;;;14.93;;
33190;SDS011;19554;42.652;23.364;2022-12-18T15:07:20;30.02;;;15.10;;
33190;SDS011;19554;42.652;23.364;2022-12-18T15:10:01;26.90;;;14.50;;
33190;SDS011;19554;42.652;23.364;2022-12-18T15:17:58;27.70;;;15.50;;
33190;SDS011;19554;42.652;23.364;2022-12-18T15:20:30;30.90;;;16.13;;
33190;SDS011;19554;42.652;23.364;2022-12-18T15:22:57;31.38;;;17.80;;
33190;SDS011;19554;42.652;23.364;2022-12-18T15:25:31;27.33;;;15.23;;
33190;SDS011;19554;42.652;23.364;2022-12-18T15:28:03;31.15;;;15.40;;
33190;SDS011;19554;42.652;23.364;2022-12-18T15:30:40;31.52;;;15.98;;
33190;SDS011;19554;42.652;23.364;2022-12-18T15:33:24;30.70;;;15.38;;
33190;SDS011;19554;42.652;23.364;2022-12-18T15:35:56;31.55;;;15.38;;
33190;SDS011;19554;42.652;23.364;2022-12-18T15:38:22;28.08;;;15.05;;
33190;SDS011;19554;42.652;23.364;2022-12-18T15:40:48;24.67;;;13.52;;
33190;SDS011;19554;42.652;23.364;2022-12-18T15:43:13;25.88;;;14.82;;
33190;SDS011;19554;42.652;23.364;2022-12-18T15:45:57;29.63;;;15.88;;
33190;SDS011;19554;42.652;23.364;2022-12-18T15:48:22;29.48;;;16.15;;
33190;SDS011;19554;42.652;23.364;2022-12-18T15:50:49;32.35;;;16.30;;
33190;SDS011;19554;42.652;23.364;2022-12-18T15:53:17;31.00;;;16.83;;
33190;SDS011;19554;42.652;23.364;2022-12-18T15:55:42;27.30;;;15.85;;
33190;SDS011;19554;42.652;23.364;2022-12-18T15:58:26;28.65;;;15.98;;
33190;SDS011;19554;42.652;23.364;2022-12-18T16:00:51;28.02;;;15.32;;
33190;SDS011;19554;42.652;23.364;2022-12-18T16:03:18;34.33;;;17.23;;
33190;SDS011;19554;42.652;23.364;2022-12-18T16:05:43;28.88;;;15.85;;
33190;SDS011;19554;42.652;23.364;2022-12-18T16:08:09;29.67;;;16.63;;
33190;SDS011;19554;42.652;23.364;2022-12-18T16:10:34;24.15;;;14.18;;
33190;SDS011;19554;42.652;23.364;2022-12-18T16:13:00;27.90;;;15.68;;
33190;SDS011;19554;42.652;23.364;2022-12-18T16:15:25;29.52;;;14.82;;
33190;SDS011;19554;42.652;23.364;2022-12-18T16:17:51;30.20;;;16.48;;
33190;SDS011;19554;42.652;23.364;2022-12-18T16:20:17;30.02;;;15.77;;
33190;SDS011;19554;42.652;23.364;2022-12-18T16:22:47;29.90;;;16.02;;
33190;SDS011;19554;42.652;23.364;2022-12-18T16:25:17;28.77;;;15.48;;
33190;SDS011;19554;42.652;23.364;2022-12-18T16:27:54;33.90;;;16.45;;
33190;SDS011;19554;42.652;23.364;2022-12-18T16:30:21;29.88;;;15.68;;
33190;SDS011;19554;42.652;23.364;2022-12-18T16:32:49;30.10;;;15.80;;